sensor_id;sensor_type;location;lat;lon;timestamp;temperature;humidity
2757;DHT22;1386;50.862;6.494;2023-06-10T08:30:18;26.30;99.40
2757;DHT22;1386;50.862;6.494;2023-06-10T08:32:46;26.40;99.90
2757;DHT22;1386;50.862;6.494;2023-06-10T08:35:28;26.50;99.90
2757;DHT22;1386;50.862;6.494;2023-06-10T08:37:57;26.60;99.90
2757;DHT22;1386;50.862;6.494;2023-06-10T08:40:24;26.60;99.90
2757;DHT22;1386;50.862;6.494;2023-06-10T08:43:00;26.60;99.90
2757;DHT22;1386;50.862;6.494;2023-06-10T08:45:45;26.70;99.90
2757;DHT22;1386;50.862;6.494;2023-06-10T08:48:17;26.90;99.90
2757;DHT22;1386;50.862;6.494;2023-06-10T08:50:48;27.00;99.90
2757;DHT22;1386;50.862;6.494;2023-06-10T08:53:57;27.10;99.90
2757;DHT22;1386;50.862;6.494;2023-06-10T08:56:59;27.20;99.90
2757;DHT22;1386;50.862;6.494;2023-06-10T08:59:49;27.30;99.90
2757;DHT22;1386;50.862;6.494;2023-06-10T09:02:41;27.40;99.90
2757;DHT22;1386;50.862;6.494;2023-06-10T09:05:12;27.40;99.90
2757;DHT22;1386;50.862;6.494;2023-06-10T09:07:40;27.40;98.70
2757;DHT22;1386;50.862;6.494;2023-06-10T09:10:09;27.50;99.40
2757;DHT22;1386;50.862;6.494;2023-06-10T09:12:42;27.70;99.90
2757;DHT22;1386;50.862;6.494;2023-06-10T09:15:09;27.90;99.90
2757;DHT22;1386;50.862;6.494;2023-06-10T09:17:42;28.00;99.40
2757;DHT22;1386;50.862;6.494;2023-06-10T09:26:47;28.50;98.70
2757;DHT22;1386;50.862;6.494;2023-06-10T09:32:01;28.70;97.10
2757;DHT22;1386;50.862;6.494;2023-06-10T09:34:31;28.80;95.70
2757;DHT22;1386;50.862;6.494;2023-06-10T09:36:58;28.90;95.60
2757;DHT22;1386;50.862;6.494;2023-06-10T09:39:29;28.80;93.60
2757;DHT22;1386;50.862;6.494;2023-06-10T09:42:15;29.10;95.10
2757;DHT22;1386;50.862;6.494;2023-06-10T09:44:58;29.30;94.90
2757;DHT22;1386;50.862;6.494;2023-06-10T10:15:15;30.50;88.90
2757;DHT22;1386;50.862;6.494;2023-06-10T10:17:51;30.60;86.80
2757;DHT22;1386;50.862;6.494;2023-06-10T10:20:51;30.60;84.00
2757;DHT22;1386;50.862;6.494;2023-06-10T10:23:39;30.70;84.00
2757;DHT22;1386;50.862;6.494;2023-06-10T10:26:14;30.80;85.10
2757;DHT22;1386;50.862;6.494;2023-06-10T10:41:58;31.20;81.10
2757;DHT22;1386;50.862;6.494;2023-06-10T10:44:35;31.30;79.60
2757;DHT22;1386;50.862;6.494;2023-06-10T10:47:10;31.30;77.60
2757;DHT22;1386;50.862;6.494;2023-06-10T10:49:53;31.40;79.20
2757;DHT22;1386;50.862;6.494;2023-06-10T10:52:22;31.40;78.70
2757;DHT22;1386;50.862;6.494;2023-06-10T10:54:52;31.30;77.90
2757;DHT22;1386;50.862;6.494;2023-06-10T10:57:30;31.50;76.20
2757;DHT22;1386;50.862;6.494;2023-06-10T11:00:21;31.50;77.00
2757;DHT22;1386;50.862;6.494;2023-06-10T11:02:58;31.50;76.40
2757;DHT22;1386;50.862;6.494;2023-06-10T11:06:31;31.60;77.60
2757;DHT22;1386;50.862;6.494;2023-06-10T11:08:47;31.80;77.00
2757;DHT22;1386;50.862;6.494;2023-06-10T11:11:23;31.90;76.60
2757;DHT22;1386;50.862;6.494;2023-06-10T11:14:14;32.00;76.30
2757;DHT22;1386;50.862;6.494;2023-06-10T11:16:56;32.00;76.60
2757;DHT22;1386;50.862;6.494;2023-06-10T11:19:34;32.00;73.40
2757;DHT22;1386;50.862;6.494;2023-06-10T11:22:16;32.00;73.60
2757;DHT22;1386;50.862;6.494;2023-06-10T11:24:49;32.00;71.40
2757;DHT22;1386;50.862;6.494;2023-06-10T11:27:18;31.90;69.20
2757;DHT22;1386;50.862;6.494;2023-06-10T11:30:20;32.00;70.50
2757;DHT22;1386;50.862;6.494;2023-06-10T11:32:51;32.00;68.70
2757;DHT22;1386;50.862;6.494;2023-06-10T11:35:20;32.00;67.40
2757;DHT22;1386;50.862;6.494;2023-06-10T11:37:53;31.90;68.70
2757;DHT22;1386;50.862;6.494;2023-06-10T11:40:23;32.00;67.40
2757;DHT22;1386;50.862;6.494;2023-06-10T11:42:51;32.00;68.00
2757;DHT22;1386;50.862;6.494;2023-06-10T11:45:24;32.00;68.70
2757;DHT22;1386;50.862;6.494;2023-06-10T11:48:05;31.80;63.60
2757;DHT22;1386;50.862;6.494;2023-06-10T11:50:34;31.80;63.10
2757;DHT22;1386;50.862;6.494;2023-06-10T11:53:00;31.80;63.30
2757;DHT22;1386;50.862;6.494;2023-06-10T11:55:41;31.80;64.30
2757;DHT22;1386;50.862;6.494;2023-06-10T11:58:14;32.00;66.50
2757;DHT22;1386;50.862;6.494;2023-06-10T12:00:52;32.00;65.40
2757;DHT22;1386;50.862;6.494;2023-06-10T12:03:25;32.20;64.70
2757;DHT22;1386;50.862;6.494;2023-06-10T12:05:59;32.20;64.40
2757;DHT22;1386;50.862;6.494;2023-06-10T12:08:27;32.30;65.30
2757;DHT22;1386;50.862;6.494;2023-06-10T12:10:54;32.40;65.60
2757;DHT22;1386;50.862;6.494;2023-06-10T12:13:21;32.50;64.20
2757;DHT22;1386;50.862;6.494;2023-06-10T12:15:51;32.40;62.20
2757;DHT22;1386;50.862;6.494;2023-06-10T12:18:20;32.40;62.10
2757;DHT22;1386;50.862;6.494;2023-06-10T12:20:48;32.20;61.70
2757;DHT22;1386;50.862;6.494;2023-06-10T12:23:16;32.30;62.50
2757;DHT22;1386;50.862;6.494;2023-06-10T12:25:54;32.30;63.50
2757;DHT22;1386;50.862;6.494;2023-06-10T12:28:21;32.30;61.00
2757;DHT22;1386;50.862;6.494;2023-06-10T12:33:36;32.40;61.80
2757;DHT22;1386;50.862;6.494;2023-06-10T12:36:03;32.50;63.00
2757;DHT22;1386;50.862;6.494;2023-06-10T12:38:30;32.50;62.50
2757;DHT22;1386;50.862;6.494;2023-06-10T12:41:02;32.50;62.10
2757;DHT22;1386;50.862;6.494;2023-06-10T12:44:02;32.60;60.80
2757;DHT22;1386;50.862;6.494;2023-06-10T12:47:11;32.70;60.00
2757;DHT22;1386;50.862;6.494;2023-06-10T12:50:16;32.70;60.40
2757;DHT22;1386;50.862;6.494;2023-06-10T12:52:48;32.90;61.20
2757;DHT22;1386;50.862;6.494;2023-06-10T12:55:16;32.70;63.80
2757;DHT22;1386;50.862;6.494;2023-06-10T13:02:01;32.60;66.30
2757;DHT22;1386;50.862;6.494;2023-06-10T13:05:06;32.50;65.70
2757;DHT22;1386;50.862;6.494;2023-06-10T13:11:44;32.60;62.10
2757;DHT22;1386;50.862;6.494;2023-06-10T15:42:27;31.40;54.10
2757;DHT22;1386;50.862;6.494;2023-06-10T15:47:53;31.50;55.60
2757;DHT22;1386;50.862;6.494;2023-06-10T15:50:28;31.70;55.80
2757;DHT22;1386;50.862;6.494;2023-06-10T15:52:55;31.70;55.80
2757;DHT22;1386;50.862;6.494;2023-06-10T15:55:25;31.80;55.80
2757;DHT22;1386;50.862;6.494;2023-06-10T15:57:55;31.70;55.60
2757;DHT22;1386;50.862;6.494;2023-06-10T16:00:38;31.70;56.20
2757;DHT22;1386;50.862;6.494;2023-06-10T16:10:01;31.40;57.00
2757;DHT22;1386;50.862;6.494;2023-06-10T16:12:35;31.20;57.00
2757;DHT22;1386;50.862;6.494;2023-06-10T16:15:16;31.30;58.00
2757;DHT22;1386;50.862;6.494;2023-06-10T16:17:45;31.10;58.10
2757;DHT22;1386;50.862;6.494;2023-06-10T16:20:20;31.10;58.30
2757;DHT22;1386;50.862;6.494;2023-06-10T16:22:51;31.00;57.80
2757;DHT22;1386;50.862;6.494;2023-06-10T16:25:18;30.90;58.40
2757;DHT22;1386;50.862;6.494;2023-06-10T16:27:56;30.90;58.40
2757;DHT22;1386;50.862;6.494;2023-06-10T16:30:25;30.80;58.40
2757;DHT22;1386;50.862;6.494;2023-06-10T16:32:52;30.80;58.70
2757;DHT22;1386;50.862;6.494;2023-06-10T16:35:19;30.80;59.30
2757;DHT22;1386;50.862;6.494;2023-06-10T16:37:46;30.80;59.10
2757;DHT22;1386;50.862;6.494;2023-06-10T16:40:15;30.80;59.50
2757;DHT22;1386;50.862;6.494;2023-06-10T16:42:42;30.80;61.00
2757;DHT22;1386;50.862;6.494;2023-06-10T16:45:13;30.70;60.20
2757;DHT22;1386;50.862;6.494;2023-06-10T16:47:51;30.70;59.50
2757;DHT22;1386;50.862;6.494;2023-06-10T16:50:18;30.60;59.20
2757;DHT22;1386;50.862;6.494;2023-06-10T16:52:45;30.60;57.70
2757;DHT22;1386;50.862;6.494;2023-06-10T16:55:12;30.50;57.30
2757;DHT22;1386;50.862;6.494;2023-06-10T16:57:39;30.40;56.60
2757;DHT22;1386;50.862;6.494;2023-06-10T17:00:10;30.40;57.10
2757;DHT22;1386;50.862;6.494;2023-06-10T17:02:37;30.40;57.30
2757;DHT22;1386;50.862;6.494;2023-06-10T17:05:42;30.50;57.60
2757;DHT22;1386;50.862;6.494;2023-06-10T17:11:57;30.50;58.40
2757;DHT22;1386;50.862;6.494;2023-06-10T17:14:48;30.50;58.30
2757;DHT22;1386;50.862;6.494;2023-06-10T17:17:31;30.50;58.90
2757;DHT22;1386;50.862;6.494;2023-06-10T17:21:03;30.40;57.50
2757;DHT22;1386;50.862;6.494;2023-06-10T17:23:08;30.30;58.30
2757;DHT22;1386;50.862;6.494;2023-06-10T17:25:36;30.30;59.20
2757;DHT22;1386;50.862;6.494;2023-06-10T17:28:06;30.20;59.60
2757;DHT22;1386;50.862;6.494;2023-06-10T17:30:40;30.10;58.70
2757;DHT22;1386;50.862;6.494;2023-06-10T17:33:23;30.00;59.00
2757;DHT22;1386;50.862;6.494;2023-06-10T17:35:56;29.90;58.90
2757;DHT22;1386;50.862;6.494;2023-06-10T17:38:27;29.90;59.10
2757;DHT22;1386;50.862;6.494;2023-06-10T17:41:03;29.90;59.10
2757;DHT22;1386;50.862;6.494;2023-06-10T17:43:32;29.90;59.20
2757;DHT22;1386;50.862;6.494;2023-06-10T17:50:57;29.90;59.20
2757;DHT22;1386;50.862;6.494;2023-06-10T17:53:31;29.80;59.50
2757;DHT22;1386;50.862;6.494;2023-06-10T17:56:32;29.70;59.60
2757;DHT22;1386;50.862;6.494;2023-06-10T17:59:01;29.60;60.10
2757;DHT22;1386;50.862;6.494;2023-06-10T18:01:28;29.60;60.40
2757;DHT22;1386;50.862;6.494;2023-06-10T18:04:04;29.60;61.00
2757;DHT22;1386;50.862;6.494;2023-06-10T18:06:31;29.60;62.10
2757;DHT22;1386;50.862;6.494;2023-06-10T18:09:12;29.50;62.30
2757;DHT22;1386;50.862;6.494;2023-06-10T18:11:41;29.50;63.20
2757;DHT22;1386;50.862;6.494;2023-06-10T18:14:08;29.40;63.40
2757;DHT22;1386;50.862;6.494;2023-06-10T18:16:43;29.40;63.80
2757;DHT22;1386;50.862;6.494;2023-06-10T18:19:13;29.40;64.30
2757;DHT22;1386;50.862;6.494;2023-06-10T18:21:47;29.30;65.30
2757;DHT22;1386;50.862;6.494;2023-06-10T18:24:20;29.20;65.90
2757;DHT22;1386;50.862;6.494;2023-06-10T18:26:54;29.20;66.50
2757;DHT22;1386;50.862;6.494;2023-06-10T18:29:26;29.20;67.30
2757;DHT22;1386;50.862;6.494;2023-06-10T18:34:42;28.90;67.90
2757;DHT22;1386;50.862;6.494;2023-06-10T18:37:11;28.90;68.40
2757;DHT22;1386;50.862;6.494;2023-06-10T18:39:44;28.80;69.30
2757;DHT22;1386;50.862;6.494;2023-06-10T18:42:11;28.80;70.20
2757;DHT22;1386;50.862;6.494;2023-06-10T18:44:38;28.70;70.00
2757;DHT22;1386;50.862;6.494;2023-06-10T18:47:09;28.60;71.00
2757;DHT22;1386;50.862;6.494;2023-06-10T18:49:36;28.60;72.30
2757;DHT22;1386;50.862;6.494;2023-06-10T18:52:03;28.50;71.90
2757;DHT22;1386;50.862;6.494;2023-06-10T18:54:34;28.40;72.10
2757;DHT22;1386;50.862;6.494;2023-06-10T18:57:02;28.30;73.20
2757;DHT22;1386;50.862;6.494;2023-06-10T18:59:34;28.20;74.70
2757;DHT22;1386;50.862;6.494;2023-06-10T19:02:08;28.10;75.70
2757;DHT22;1386;50.862;6.494;2023-06-10T19:04:36;28.00;75.30
2757;DHT22;1386;50.862;6.494;2023-06-10T19:07:08;27.90;74.40
2757;DHT22;1386;50.862;6.494;2023-06-10T19:09:35;27.90;75.30
2757;DHT22;1386;50.862;6.494;2023-06-10T19:12:04;27.80;76.70
2757;DHT22;1386;50.862;6.494;2023-06-10T19:14:32;27.70;77.30
2757;DHT22;1386;50.862;6.494;2023-06-10T19:16:59;27.60;78.60
2757;DHT22;1386;50.862;6.494;2023-06-10T19:19:26;27.40;80.70
2757;DHT22;1386;50.862;6.494;2023-06-10T19:21:52;27.40;81.90
2757;DHT22;1386;50.862;6.494;2023-06-10T19:24:21;27.20;81.20
2757;DHT22;1386;50.862;6.494;2023-06-10T19:26:48;27.10;81.60
2757;DHT22;1386;50.862;6.494;2023-06-10T19:29:16;27.00;81.30
2757;DHT22;1386;50.862;6.494;2023-06-10T19:31:43;26.90;80.70
2757;DHT22;1386;50.862;6.494;2023-06-10T19:34:11;26.90;79.80
2757;DHT22;1386;50.862;6.494;2023-06-10T19:36:39;26.90;78.70
2757;DHT22;1386;50.862;6.494;2023-06-10T19:39:06;26.80;79.40
2757;DHT22;1386;50.862;6.494;2023-06-10T19:41:34;26.70;79.20
2757;DHT22;1386;50.862;6.494;2023-06-10T19:44:03;26.70;78.80
2757;DHT22;1386;50.862;6.494;2023-06-10T19:46:37;26.60;78.80
2757;DHT22;1386;50.862;6.494;2023-06-10T19:49:07;26.60;79.70
2757;DHT22;1386;50.862;6.494;2023-06-10T19:51:48;26.50;80.00
2757;DHT22;1386;50.862;6.494;2023-06-10T19:54:17;26.40;80.00
2757;DHT22;1386;50.862;6.494;2023-06-10T19:56:47;26.30;79.30
2757;DHT22;1386;50.862;6.494;2023-06-10T19:59:17;26.30;78.40
2757;DHT22;1386;50.862;6.494;2023-06-10T20:04:38;26.00;79.30
2757;DHT22;1386;50.862;6.494;2023-06-10T20:07:27;26.00;79.80
2757;DHT22;1386;50.862;6.494;2023-06-10T20:09:59;25.90;80.40
2757;DHT22;1386;50.862;6.494;2023-06-10T20:12:26;25.80;80.80
2757;DHT22;1386;50.862;6.494;2023-06-10T20:14:53;25.70;81.10
2757;DHT22;1386;50.862;6.494;2023-06-10T20:17:21;25.70;81.40
2757;DHT22;1386;50.862;6.494;2023-06-10T20:19:48;25.60;81.90
2757;DHT22;1386;50.862;6.494;2023-06-10T20:22:18;25.60;81.70
2757;DHT22;1386;50.862;6.494;2023-06-10T20:24:51;25.60;81.40
2757;DHT22;1386;50.862;6.494;2023-06-10T20:27:31;25.50;81.30
2757;DHT22;1386;50.862;6.494;2023-06-10T20:29:57;25.50;80.60
2757;DHT22;1386;50.862;6.494;2023-06-10T20:32:26;25.50;80.20
2757;DHT22;1386;50.862;6.494;2023-06-10T20:34:57;25.50;79.60
2757;DHT22;1386;50.862;6.494;2023-06-10T20:37:30;25.40;80.50
2757;DHT22;1386;50.862;6.494;2023-06-10T20:39:57;25.40;80.70
2757;DHT22;1386;50.862;6.494;2023-06-10T20:42:33;25.30;79.30
2757;DHT22;1386;50.862;6.494;2023-06-10T20:45:00;25.30;79.70
2757;DHT22;1386;50.862;6.494;2023-06-10T20:47:45;25.30;78.80
2757;DHT22;1386;50.862;6.494;2023-06-10T20:50:15;25.20;79.10
2757;DHT22;1386;50.862;6.494;2023-06-10T20:52:48;25.20;79.50
2757;DHT22;1386;50.862;6.494;2023-06-10T20:55:16;25.20;79.40
2757;DHT22;1386;50.862;6.494;2023-06-10T20:57:51;25.20;80.20
2757;DHT22;1386;50.862;6.494;2023-06-10T21:00:23;25.10;79.80
2757;DHT22;1386;50.862;6.494;2023-06-10T21:02:54;25.10;80.30
2757;DHT22;1386;50.862;6.494;2023-06-10T21:05:26;25.10;80.80
2757;DHT22;1386;50.862;6.494;2023-06-10T21:08:16;25.00;80.80
2757;DHT22;1386;50.862;6.494;2023-06-10T21:10:56;25.00;81.10
2757;DHT22;1386;50.862;6.494;2023-06-10T21:13:29;24.90;81.40
2757;DHT22;1386;50.862;6.494;2023-06-10T21:33:01;24.40;84.10
2757;DHT22;1386;50.862;6.494;2023-06-10T21:35:28;24.30;84.20
2757;DHT22;1386;50.862;6.494;2023-06-10T21:38:00;24.20;84.40
2757;DHT22;1386;50.862;6.494;2023-06-10T21:40:29;24.10;84.90
2757;DHT22;1386;50.862;6.494;2023-06-10T21:42:59;24.10;84.90
2757;DHT22;1386;50.862;6.494;2023-06-10T21:45:28;24.00;85.00
2757;DHT22;1386;50.862;6.494;2023-06-10T21:48:01;23.90;85.00
2757;DHT22;1386;50.862;6.494;2023-06-10T21:50:28;23.80;85.40
2757;DHT22;1386;50.862;6.494;2023-06-10T21:52:55;23.80;85.20
2757;DHT22;1386;50.862;6.494;2023-06-10T21:55:27;23.70;85.60
2757;DHT22;1386;50.862;6.494;2023-06-10T21:58:10;23.60;86.10
2757;DHT22;1386;50.862;6.494;2023-06-10T22:00:45;23.50;87.00
2757;DHT22;1386;50.862;6.494;2023-06-10T22:03:34;23.40;88.70
2757;DHT22;1386;50.862;6.494;2023-06-10T22:06:04;23.30;88.40
2757;DHT22;1386;50.862;6.494;2023-06-10T22:08:32;23.30;88.20
2757;DHT22;1386;50.862;6.494;2023-06-10T22:11:03;23.20;88.50
2757;DHT22;1386;50.862;6.494;2023-06-10T22:13:38;23.20;89.30
2757;DHT22;1386;50.862;6.494;2023-06-10T22:16:10;23.10;89.70
2757;DHT22;1386;50.862;6.494;2023-06-10T22:18:40;23.00;90.70
2757;DHT22;1386;50.862;6.494;2023-06-10T22:21:17;22.90;91.60
2757;DHT22;1386;50.862;6.494;2023-06-10T22:23:44;22.80;91.50
2757;DHT22;1386;50.862;6.494;2023-06-10T22:26:12;22.80;90.40
2757;DHT22;1386;50.862;6.494;2023-06-10T22:28:39;22.70;90.40
2757;DHT22;1386;50.862;6.494;2023-06-10T22:31:07;22.60;90.70
2757;DHT22;1386;50.862;6.494;2023-06-10T22:33:34;22.60;91.00
2757;DHT22;1386;50.862;6.494;2023-06-10T22:36:04;22.60;90.50
2757;DHT22;1386;50.862;6.494;2023-06-10T22:38:32;22.60;90.80
2757;DHT22;1386;50.862;6.494;2023-06-10T22:40:59;22.50;91.50
2757;DHT22;1386;50.862;6.494;2023-06-10T22:43:30;22.50;91.80
2757;DHT22;1386;50.862;6.494;2023-06-10T22:45:57;22.50;91.90
2757;DHT22;1386;50.862;6.494;2023-06-10T22:48:24;22.50;91.30
2757;DHT22;1386;50.862;6.494;2023-06-10T22:50:54;22.40;90.80
2757;DHT22;1386;50.862;6.494;2023-06-10T22:57:31;22.40;91.00
